sensor_id;sensor_type;location;lat;lon;timestamp;pressure;altitude;pressure_sealevel;temperature;humidity
61961;BME280;47923;42.506;24.192;2023-05-12T00:01:55;95752.81;;;6.05;62.60
61961;BME280;47923;42.506;24.192;2023-05-12T00:04:20;95876.25;;;6.82;63.68
61961;BME280;47923;42.506;24.192;2023-05-12T00:06:46;95877.53;;;6.84;63.16
61961;BME280;47923;42.506;24.192;2023-05-12T00:09:12;95917.03;;;7.13;63.22
61961;BME280;47923;42.506;24.192;2023-05-12T00:11:37;95869.06;;;6.65;62.91
61961;BME280;47923;42.506;24.192;2023-05-12T00:14:03;95832.97;;;6.54;62.84
61961;BME280;47923;42.506;24.192;2023-05-12T00:16:31;95816.56;;;6.47;63.75
61961;BME280;47923;42.506;24.192;2023-05-12T00:18:56;95827.63;;;6.45;63.61
61961;BME280;47923;42.506;24.192;2023-05-12T00:21:22;95863.03;;;6.77;63.64
61961;BME280;47923;42.506;24.192;2023-05-12T00:23:47;95815.91;;;6.50;63.69
61961;BME280;47923;42.506;24.192;2023-05-12T00:26:13;95752.66;;;6.11;63.81
61961;BME280;47923;42.506;24.192;2023-05-12T00:28:38;95797.97;;;6.42;63.44
61961;BME280;47923;42.506;24.192;2023-05-12T00:31:04;95715.00;;;5.90;63.73
61961;BME280;47923;42.506;24.192;2023-05-12T00:33:30;95928.34;;;7.28;63.54
61961;BME280;47923;42.506;24.192;2023-05-12T00:35:55;95932.28;;;7.30;63.53
61961;BME280;47923;42.506;24.192;2023-05-12T00:38:21;95764.19;;;6.02;63.14
61961;BME280;47923;42.506;24.192;2023-05-12T00:40:46;95935.63;;;7.27;63.44
61961;BME280;47923;42.506;24.192;2023-05-12T00:43:12;95885.19;;;6.95;63.39
61961;BME280;47923;42.506;24.192;2023-05-12T00:45:38;95779.53;;;6.31;63.16
61961;BME280;47923;42.506;24.192;2023-05-12T00:48:05;95941.25;;;7.34;63.82
61961;BME280;47923;42.506;24.192;2023-05-12T00:50:31;95931.59;;;7.33;64.24
61961;BME280;47923;42.506;24.192;2023-05-12T00:52:58;95904.06;;;7.15;64.16
61961;BME280;47923;42.506;24.192;2023-05-12T00:55:25;95583.63;;;5.05;64.11
61961;BME280;47923;42.506;24.192;2023-05-12T00:57:51;95931.94;;;7.32;64.16
61961;BME280;47923;42.506;24.192;2023-05-12T01:00:16;95867.84;;;6.92;64.62
61961;BME280;47923;42.506;24.192;2023-05-12T01:02:43;95869.25;;;6.89;64.93
61961;BME280;47923;42.506;24.192;2023-05-12T01:05:09;95877.31;;;6.89;65.05
61961;BME280;47923;42.506;24.192;2023-05-12T01:07:35;95935.63;;;7.27;64.50
61961;BME280;47923;42.506;24.192;2023-05-12T01:10:00;95898.78;;;6.98;66.24
61961;BME280;47923;42.506;24.192;2023-05-12T01:12:26;95723.81;;;5.90;66.70
61961;BME280;47923;42.506;24.192;2023-05-12T01:14:53;95925.94;;;7.05;66.72
61961;BME280;47923;42.506;24.192;2023-05-12T01:17:24;95853.56;;;6.71;66.81
61961;BME280;47923;42.506;24.192;2023-05-12T01:20:00;95934.22;;;7.21;66.44
61961;BME280;47923;42.506;24.192;2023-05-12T01:22:33;95931.34;;;7.26;68.13
61961;BME280;47923;42.506;24.192;2023-05-12T01:25:05;95935.13;;;7.25;68.37
61961;BME280;47923;42.506;24.192;2023-05-12T01:27:32;95936.91;;;7.21;68.94
61961;BME280;47923;42.506;24.192;2023-05-12T01:30:03;95890.63;;;6.86;69.11
61961;BME280;47923;42.506;24.192;2023-05-12T01:32:29;95670.00;;;5.48;69.64
61961;BME280;47923;42.506;24.192;2023-05-12T01:34:55;95493.72;;;4.39;69.44
61961;BME280;47923;42.506;24.192;2023-05-12T01:37:20;95461.03;;;4.16;69.19
61961;BME280;47923;42.506;24.192;2023-05-12T01:39:46;95943.19;;;7.25;69.26
61961;BME280;47923;42.506;24.192;2023-05-12T01:42:12;95926.00;;;7.17;69.88
61961;BME280;47923;42.506;24.192;2023-05-12T01:44:37;95926.50;;;7.11;70.40
61961;BME280;47923;42.506;24.192;2023-05-12T01:47:03;95855.84;;;6.51;69.86
61961;BME280;47923;42.506;24.192;2023-05-12T01:49:29;95422.06;;;3.81;69.94
61961;BME280;47923;42.506;24.192;2023-05-12T01:51:54;95919.91;;;7.08;69.59
61961;BME280;47923;42.506;24.192;2023-05-12T01:54:20;95833.13;;;6.49;69.87
61961;BME280;47923;42.506;24.192;2023-05-12T01:56:45;95918.38;;;6.99;69.47
61961;BME280;47923;42.506;24.192;2023-05-12T01:59:11;95891.44;;;6.78;69.72
61961;BME280;47923;42.506;24.192;2023-05-12T02:01:36;95843.88;;;6.49;69.50
61961;BME280;47923;42.506;24.192;2023-05-12T02:04:02;95711.88;;;5.70;69.30
61961;BME280;47923;42.506;24.192;2023-05-12T02:06:29;95913.13;;;7.02;70.86
61961;BME280;47923;42.506;24.192;2023-05-12T02:08:54;95869.69;;;6.71;70.72
61961;BME280;47923;42.506;24.192;2023-05-12T02:11:20;95798.81;;;6.25;70.38
61961;BME280;47923;42.506;24.192;2023-05-12T02:13:46;95675.38;;;5.48;70.78
61961;BME280;47923;42.506;24.192;2023-05-12T02:16:11;95553.66;;;4.56;71.20
61961;BME280;47923;42.506;24.192;2023-05-12T02:18:37;95844.00;;;6.52;70.82
61961;BME280;47923;42.506;24.192;2023-05-12T02:21:03;95800.72;;;6.16;70.68
61961;BME280;47923;42.506;24.192;2023-05-12T02:23:29;95908.91;;;6.92;70.03
61961;BME280;47923;42.506;24.192;2023-05-12T02:25:54;95903.34;;;6.98;70.44
61961;BME280;47923;42.506;24.192;2023-05-12T02:28:19;95328.25;;;3.22;70.03
61961;BME280;47923;42.506;24.192;2023-05-12T02:30:46;95907.34;;;6.91;70.16
61961;BME280;47923;42.506;24.192;2023-05-12T02:33:13;95836.28;;;6.51;70.52
61961;BME280;47923;42.506;24.192;2023-05-12T02:35:39;95766.34;;;6.09;70.13
61961;BME280;47923;42.506;24.192;2023-05-12T02:38:05;95895.84;;;6.82;69.42
61961;BME280;47923;42.506;24.192;2023-05-12T02:40:30;95893.81;;;6.79;69.60
61961;BME280;47923;42.506;24.192;2023-05-12T02:42:56;95815.84;;;6.29;69.58
61961;BME280;47923;42.506;24.192;2023-05-12T02:45:22;95647.56;;;5.23;69.12
61961;BME280;47923;42.506;24.192;2023-05-12T02:47:47;95916.31;;;6.96;69.19
61961;BME280;47923;42.506;24.192;2023-05-12T02:50:13;95831.13;;;6.37;69.23
61961;BME280;47923;42.506;24.192;2023-05-12T02:52:42;95716.63;;;5.65;69.78
61961;BME280;47923;42.506;24.192;2023-05-12T02:55:07;95825.47;;;6.30;69.84
61961;BME280;47923;42.506;24.192;2023-05-12T02:57:36;95866.59;;;6.51;69.38
61961;BME280;47923;42.506;24.192;2023-05-12T03:00:05;95921.97;;;7.03;69.33
61961;BME280;47923;42.506;24.192;2023-05-12T03:02:33;95771.09;;;6.12;70.38
61961;BME280;47923;42.506;24.192;2023-05-12T03:04:59;95804.47;;;6.32;70.77
61961;BME280;47923;42.506;24.192;2023-05-12T03:07:24;95924.03;;;6.97;71.26
61961;BME280;47923;42.506;24.192;2023-05-12T03:09:50;95833.75;;;6.54;70.79
61961;BME280;47923;42.506;24.192;2023-05-12T03:12:15;95802.59;;;6.32;71.24
61961;BME280;47923;42.506;24.192;2023-05-12T03:14:41;95427.41;;;3.90;71.43
61961;BME280;47923;42.506;24.192;2023-05-12T03:17:07;95785.75;;;6.15;71.72
61961;BME280;47923;42.506;24.192;2023-05-12T03:19:32;95813.31;;;6.32;72.17
61961;BME280;47923;42.506;24.192;2023-05-12T03:21:59;95852.53;;;6.54;72.19
61961;BME280;47923;42.506;24.192;2023-05-12T03:24:25;95945.81;;;7.13;73.16
61961;BME280;47923;42.506;24.192;2023-05-12T03:26:50;95944.06;;;7.08;73.84
61961;BME280;47923;42.506;24.192;2023-05-12T03:29:16;95757.44;;;5.88;73.94
61961;BME280;47923;42.506;24.192;2023-05-12T03:31:41;95831.00;;;6.33;73.72
61961;BME280;47923;42.506;24.192;2023-05-12T03:34:07;95753.81;;;5.83;74.42
61961;BME280;47923;42.506;24.192;2023-05-12T03:36:33;95881.38;;;6.66;74.53
61961;BME280;47923;42.506;24.192;2023-05-12T03:38:58;95651.66;;;5.12;74.98
61961;BME280;47923;42.506;24.192;2023-05-12T03:41:24;95742.16;;;5.71;75.77
61961;BME280;47923;42.506;24.192;2023-05-12T03:43:49;95958.63;;;7.07;76.38
61961;BME280;47923;42.506;24.192;2023-05-12T03:46:14;95794.78;;;6.01;76.29
61961;BME280;47923;42.506;24.192;2023-05-12T03:48:40;95962.22;;;7.20;77.53
61961;BME280;47923;42.506;24.192;2023-05-12T03:51:05;95356.22;;;3.33;76.28
61961;BME280;47923;42.506;24.192;2023-05-12T03:53:31;95943.56;;;7.15;76.49
61961;BME280;47923;42.506;24.192;2023-05-12T03:55:57;95945.75;;;7.22;75.99
61961;BME280;47923;42.506;24.192;2023-05-12T03:58:25;95972.75;;;7.55;75.10
61961;BME280;47923;42.506;24.192;2023-05-12T04:00:50;95972.56;;;7.60;73.96
61961;BME280;47923;42.506;24.192;2023-05-12T04:03:16;95777.44;;;6.37;73.49
61961;BME280;47923;42.506;24.192;2023-05-12T04:05:41;95922.47;;;7.26;72.47
61961;BME280;47923;42.506;24.192;2023-05-12T04:08:08;95782.94;;;6.49;71.47
61961;BME280;47923;42.506;24.192;2023-05-12T04:10:38;95779.00;;;6.47;71.63
61961;BME280;47923;42.506;24.192;2023-05-12T04:13:04;95983.34;;;7.81;74.37
61961;BME280;47923;42.506;24.192;2023-05-12T04:15:30;95980.78;;;7.84;73.05
61961;BME280;47923;42.506;24.192;2023-05-12T04:17:56;95976.69;;;7.87;73.44
61961;BME280;47923;42.506;24.192;2023-05-12T04:20:22;95610.72;;;5.50;72.95
61961;BME280;47923;42.506;24.192;2023-05-12T04:22:48;95718.63;;;6.23;72.77
61961;BME280;47923;42.506;24.192;2023-05-12T04:25:13;95607.75;;;5.51;72.81
61961;BME280;47923;42.506;24.192;2023-05-12T04:27:39;95893.34;;;7.36;73.49
61961;BME280;47923;42.506;24.192;2023-05-12T04:30:05;95853.94;;;6.90;75.07
61961;BME280;47923;42.506;24.192;2023-05-12T04:32:30;95931.59;;;7.33;76.46
61961;BME280;47923;42.506;24.192;2023-05-12T04:34:56;95868.75;;;6.96;75.58
61961;BME280;47923;42.506;24.192;2023-05-12T04:37:22;95977.72;;;7.73;75.85
61961;BME280;47923;42.506;24.192;2023-05-12T04:39:47;95980.34;;;7.82;76.03
61961;BME280;47923;42.506;24.192;2023-05-12T04:42:13;95982.09;;;7.78;77.59
61961;BME280;47923;42.506;24.192;2023-05-12T04:44:38;95983.28;;;7.68;78.40
61961;BME280;47923;42.506;24.192;2023-05-12T04:47:04;95887.09;;;6.94;78.08
61961;BME280;47923;42.506;24.192;2023-05-12T04:49:29;95854.81;;;6.73;79.50
61961;BME280;47923;42.506;24.192;2023-05-12T04:51:55;95808.94;;;6.57;79.12
61961;BME280;47923;42.506;24.192;2023-05-12T04:54:20;95872.22;;;6.97;78.22
61961;BME280;47923;42.506;24.192;2023-05-12T04:56:46;95894.09;;;7.16;79.42
61961;BME280;47923;42.506;24.192;2023-05-12T04:59:12;95982.16;;;7.69;78.53
61961;BME280;47923;42.506;24.192;2023-05-12T05:01:41;95833.06;;;6.66;78.74
61961;BME280;47923;42.506;24.192;2023-05-12T05:04:07;95963.78;;;7.51;79.82
61961;BME280;47923;42.506;24.192;2023-05-12T05:06:32;95504.38;;;4.65;78.12
61961;BME280;47923;42.506;24.192;2023-05-12T05:08:58;95928.50;;;7.52;78.06
61961;BME280;47923;42.506;24.192;2023-05-12T05:11:23;95896.41;;;7.47;77.03
61961;BME280;47923;42.506;24.192;2023-05-12T05:13:49;95967.25;;;8.14;77.19
61961;BME280;47923;42.506;24.192;2023-05-12T05:16:14;95862.69;;;7.70;76.63
61961;BME280;47923;42.506;24.192;2023-05-12T05:18:40;95960.28;;;8.54;74.76
61961;BME280;47923;42.506;24.192;2023-05-12T05:21:11;95982.22;;;8.77;73.68
61961;BME280;47923;42.506;24.192;2023-05-12T05:23:39;95925.63;;;8.65;72.36
61961;BME280;47923;42.506;24.192;2023-05-12T05:26:05;95681.47;;;7.05;72.49
61961;BME280;47923;42.506;24.192;2023-05-12T05:28:30;95972.28;;;9.14;72.32
61961;BME280;47923;42.506;24.192;2023-05-12T05:30:56;95840.31;;;8.57;70.84
61961;BME280;47923;42.506;24.192;2023-05-12T05:33:22;95972.16;;;9.84;68.01
61961;BME280;47923;42.506;24.192;2023-05-12T05:35:48;95969.41;;;9.96;67.66
61961;BME280;47923;42.506;24.192;2023-05-12T05:38:13;95878.06;;;9.71;65.27
61961;BME280;47923;42.506;24.192;2023-05-12T05:40:39;95695.91;;;8.65;63.87
61961;BME280;47923;42.506;24.192;2023-05-12T05:43:04;95988.28;;;10.93;63.13
61961;BME280;47923;42.506;24.192;2023-05-12T05:45:31;95971.63;;;11.38;62.70
61961;BME280;47923;42.506;24.192;2023-05-12T05:47:56;95779.75;;;10.28;60.59
61961;BME280;47923;42.506;24.192;2023-05-12T05:50:22;95932.22;;;10.90;59.63
61961;BME280;47923;42.506;24.192;2023-05-12T05:52:47;95972.41;;;10.91;60.42
61961;BME280;47923;42.506;24.192;2023-05-12T05:55:13;95972.28;;;11.31;61.33
61961;BME280;47923;42.506;24.192;2023-05-12T05:57:38;95864.81;;;10.81;60.62
61961;BME280;47923;42.506;24.192;2023-05-12T06:00:05;95806.84;;;10.47;58.66
61961;BME280;47923;42.506;24.192;2023-05-12T06:02:32;95777.06;;;10.43;58.75
61961;BME280;47923;42.506;24.192;2023-05-12T06:04:58;95969.09;;;11.61;58.67
61961;BME280;47923;42.506;24.192;2023-05-12T06:07:24;95951.94;;;11.88;57.60
61961;BME280;47923;42.506;24.192;2023-05-12T06:09:52;95568.50;;;9.20;58.64
61961;BME280;47923;42.506;24.192;2023-05-12T06:12:18;95973.19;;;12.06;57.12
61961;BME280;47923;42.506;24.192;2023-05-12T06:14:43;95946.34;;;12.36;57.50
61961;BME280;47923;42.506;24.192;2023-05-12T06:17:09;95976.84;;;12.33;57.40
61961;BME280;47923;42.506;24.192;2023-05-12T06:19:34;95919.09;;;11.90;56.40
61961;BME280;47923;42.506;24.192;2023-05-12T06:22:00;95932.78;;;12.36;56.22
61961;BME280;47923;42.506;24.192;2023-05-12T06:24:26;95935.00;;;11.92;56.06
61961;BME280;47923;42.506;24.192;2023-05-12T06:26:51;95997.22;;;12.46;55.33
61961;BME280;47923;42.506;24.192;2023-05-12T06:29:16;95849.00;;;11.85;53.88
61961;BME280;47923;42.506;24.192;2023-05-12T06:31:45;95995.75;;;12.91;53.22
61961;BME280;47923;42.506;24.192;2023-05-12T06:34:11;95988.69;;;13.28;51.37
61961;BME280;47923;42.506;24.192;2023-05-12T06:36:36;95819.50;;;12.41;51.05
61961;BME280;47923;42.506;24.192;2023-05-12T06:39:01;95823.56;;;12.78;49.75
61961;BME280;47923;42.506;24.192;2023-05-12T06:41:28;95991.59;;;14.79;47.29
61961;BME280;47923;42.506;24.192;2023-05-12T06:43:54;95618.81;;;12.31;46.16
61961;BME280;47923;42.506;24.192;2023-05-12T06:46:19;95919.50;;;13.95;47.39
61961;BME280;47923;42.506;24.192;2023-05-12T06:48:45;95994.56;;;14.67;48.33
61961;BME280;47923;42.506;24.192;2023-05-12T06:51:11;95998.34;;;14.28;47.78
61961;BME280;47923;42.506;24.192;2023-05-12T06:53:37;95797.84;;;12.45;46.97
61961;BME280;47923;42.506;24.192;2023-05-12T06:56:04;95812.59;;;12.93;46.23
61961;BME280;47923;42.506;24.192;2023-05-12T06:58:30;95992.16;;;13.75;47.95
61961;BME280;47923;42.506;24.192;2023-05-12T07:00:56;96000.88;;;13.88;48.43
61961;BME280;47923;42.506;24.192;2023-05-12T07:03:22;95808.41;;;12.50;47.71
61961;BME280;47923;42.506;24.192;2023-05-12T07:05:47;96003.72;;;13.45;49.41
61961;BME280;47923;42.506;24.192;2023-05-12T07:08:13;95991.00;;;13.76;49.92
61961;BME280;47923;42.506;24.192;2023-05-12T07:10:38;95995.09;;;13.40;48.22
61961;BME280;47923;42.506;24.192;2023-05-12T07:13:04;95893.31;;;12.58;48.21
61961;BME280;47923;42.506;24.192;2023-05-12T07:15:30;96004.22;;;13.77;48.20
61961;BME280;47923;42.506;24.192;2023-05-12T07:17:55;95983.03;;;13.60;47.48
61961;BME280;47923;42.506;24.192;2023-05-12T07:20:22;95954.69;;;13.88;47.21
61961;BME280;47923;42.506;24.192;2023-05-12T07:22:47;95994.94;;;14.05;47.69
61961;BME280;47923;42.506;24.192;2023-05-12T07:25:13;95991.38;;;14.31;47.07
61961;BME280;47923;42.506;24.192;2023-05-12T07:27:40;95848.84;;;13.61;46.22
61961;BME280;47923;42.506;24.192;2023-05-12T07:30:06;95969.31;;;14.66;46.30
61961;BME280;47923;42.506;24.192;2023-05-12T07:32:32;95993.09;;;15.10;45.42
61961;BME280;47923;42.506;24.192;2023-05-12T07:34:58;95988.75;;;14.68;44.99
61961;BME280;47923;42.506;24.192;2023-05-12T07:37:23;95577.97;;;12.73;45.85
61961;BME280;47923;42.506;24.192;2023-05-12T07:39:49;95963.06;;;15.47;43.49
61961;BME280;47923;42.506;24.192;2023-05-12T07:42:14;95869.66;;;14.88;43.10
61961;BME280;47923;42.506;24.192;2023-05-12T07:44:40;95980.72;;;15.19;44.29
61961;BME280;47923;42.506;24.192;2023-05-12T07:47:08;95841.75;;;14.54;45.23
61961;BME280;47923;42.506;24.192;2023-05-12T07:49:34;95963.03;;;15.40;45.97
61961;BME280;47923;42.506;24.192;2023-05-12T07:51:59;95991.78;;;14.97;45.87
61961;BME280;47923;42.506;24.192;2023-05-12T07:54:25;95985.03;;;14.83;46.77
61961;BME280;47923;42.506;24.192;2023-05-12T07:56:51;95828.03;;;13.72;48.11
61961;BME280;47923;42.506;24.192;2023-05-12T07:59:16;95977.16;;;15.56;47.25
61961;BME280;47923;42.506;24.192;2023-05-12T08:01:42;95466.34;;;12.00;45.57
61961;BME280;47923;42.506;24.192;2023-05-12T08:04:08;95996.03;;;15.35;46.03
61961;BME280;47923;42.506;24.192;2023-05-12T08:06:33;95985.56;;;15.37;45.68
61961;BME280;47923;42.506;24.192;2023-05-12T08:08:59;95825.31;;;14.80;45.44
61961;BME280;47923;42.506;24.192;2023-05-12T08:11:25;95974.53;;;15.67;44.96
61961;BME280;47923;42.506;24.192;2023-05-12T08:13:51;95983.31;;;15.49;46.63
61961;BME280;47923;42.506;24.192;2023-05-12T08:16:17;95918.50;;;15.14;46.91
61961;BME280;47923;42.506;24.192;2023-05-12T08:18:43;95989.81;;;14.93;47.46
61961;BME280;47923;42.506;24.192;2023-05-12T08:21:09;95828.00;;;14.77;44.50
61961;BME280;47923;42.506;24.192;2023-05-12T08:23:34;95925.47;;;15.63;44.27
61961;BME280;47923;42.506;24.192;2023-05-12T08:26:05;95974.56;;;15.70;44.58
61961;BME280;47923;42.506;24.192;2023-05-12T08:28:30;95982.41;;;15.35;44.99
61961;BME280;47923;42.506;24.192;2023-05-12T08:30:58;95986.72;;;15.80;44.42
61961;BME280;47923;42.506;24.192;2023-05-12T08:33:24;95946.28;;;15.38;45.49
61961;BME280;47923;42.506;24.192;2023-05-12T08:35:50;95986.47;;;15.52;46.26
61961;BME280;47923;42.506;24.192;2023-05-12T08:38:16;96001.19;;;15.47;45.66
61961;BME280;47923;42.506;24.192;2023-05-12T08:43:33;95986.47;;;15.52;46.35
61961;BME280;47923;42.506;24.192;2023-05-12T08:46:03;95821.41;;;15.33;43.89
61961;BME280;47923;42.506;24.192;2023-05-12T08:48:33;95974.09;;;16.16;44.81
61961;BME280;47923;42.506;24.192;2023-05-12T08:51:00;95972.63;;;16.44;43.21
61961;BME280;47923;42.506;24.192;2023-05-12T08:53:26;95985.00;;;16.20;43.14
61961;BME280;47923;42.506;24.192;2023-05-12T08:55:55;95981.44;;;16.09;43.73
61961;BME280;47923;42.506;24.192;2023-05-12T08:58:23;95977.91;;;16.05;43.64
61961;BME280;47923;42.506;24.192;2023-05-12T09:00:49;95908.53;;;15.88;43.90
61961;BME280;47923;42.506;24.192;2023-05-12T09:03:16;95919.53;;;16.09;42.55
61961;BME280;47923;42.506;24.192;2023-05-12T09:05:43;95973.69;;;17.19;39.84
61961;BME280;47923;42.506;24.192;2023-05-12T09:08:09;95859.41;;;17.00;36.37
61961;BME280;47923;42.506;24.192;2023-05-12T09:10:35;95983.03;;;17.25;36.55
61961;BME280;47923;42.506;24.192;2023-05-12T09:15:42;95971.06;;;16.43;35.98
61961;BME280;47923;42.506;24.192;2023-05-12T09:18:08;95963.47;;;16.95;35.63
61961;BME280;47923;42.506;24.192;2023-05-12T09:20:34;95640.47;;;15.05;35.16
61961;BME280;47923;42.506;24.192;2023-05-12T09:23:20;95964.34;;;17.70;36.13
61961;BME280;47923;42.506;24.192;2023-05-12T09:25:58;95784.16;;;16.84;33.24
61961;BME280;47923;42.506;24.192;2023-05-12T09:28:33;95959.66;;;17.63;33.11
61961;BME280;47923;42.506;24.192;2023-05-12T09:30:59;95948.22;;;19.13;32.33
61961;BME280;47923;42.506;24.192;2023-05-12T09:33:25;95618.13;;;16.58;32.81
61961;BME280;47923;42.506;24.192;2023-05-12T09:35:50;95952.59;;;19.55;32.23
61961;BME280;47923;42.506;24.192;2023-05-12T09:38:17;95935.75;;;19.01;31.07
61961;BME280;47923;42.506;24.192;2023-05-12T09:40:42;95959.75;;;19.39;32.10
61961;BME280;47923;42.506;24.192;2023-05-12T09:43:08;95896.28;;;20.26;30.75
61961;BME280;47923;42.506;24.192;2023-05-12T09:45:36;95824.41;;;21.43;26.26
61961;BME280;47923;42.506;24.192;2023-05-12T09:48:29;95698.13;;;20.69;26.13
61961;BME280;47923;42.506;24.192;2023-05-12T09:50:55;95950.34;;;21.95;27.70
61961;BME280;47923;42.506;24.192;2023-05-12T09:53:22;95953.19;;;22.34;27.84
61961;BME280;47923;42.506;24.192;2023-05-12T09:55:48;95939.84;;;20.58;29.96
61961;BME280;47923;42.506;24.192;2023-05-12T09:58:15;95964.84;;;21.21;29.54
61961;BME280;47923;42.506;24.192;2023-05-12T10:00:42;95953.97;;;19.29;31.04
61961;BME280;47923;42.506;24.192;2023-05-12T10:03:14;95942.44;;;19.97;31.03
61961;BME280;47923;42.506;24.192;2023-05-12T10:05:56;95732.22;;;18.18;31.33
61961;BME280;47923;42.506;24.192;2023-05-12T10:08:34;95838.97;;;19.26;32.81
61961;BME280;47923;42.506;24.192;2023-05-12T10:11:04;95721.41;;;19.04;32.50
61961;BME280;47923;42.506;24.192;2023-05-12T10:13:30;95953.78;;;21.02;30.42
61961;BME280;47923;42.506;24.192;2023-05-12T10:15:56;95793.50;;;20.04;29.78
61961;BME280;47923;42.506;24.192;2023-05-12T10:18:24;95944.19;;;19.28;29.96
61961;BME280;47923;42.506;24.192;2023-05-12T10:20:50;95896.81;;;19.31;29.16
61961;BME280;47923;42.506;24.192;2023-05-12T10:23:18;95933.81;;;19.99;28.00
61961;BME280;47923;42.506;24.192;2023-05-12T10:25:44;95821.34;;;19.27;28.62
61961;BME280;47923;42.506;24.192;2023-05-12T10:28:10;95962.41;;;17.71;31.19
61961;BME280;47923;42.506;24.192;2023-05-12T10:30:40;95897.13;;;18.05;31.10
61961;BME280;47923;42.506;24.192;2023-05-12T10:33:06;95921.63;;;18.37;31.21
61961;BME280;47923;42.506;24.192;2023-05-12T10:35:35;95828.03;;;17.90;30.54
61961;BME280;47923;42.506;24.192;2023-05-12T10:38:05;95912.81;;;17.36;32.50
61961;BME280;47923;42.506;24.192;2023-05-12T10:40:31;95909.69;;;17.24;34.09
61961;BME280;47923;42.506;24.192;2023-05-12T10:42:57;95830.09;;;16.65;34.28
61961;BME280;47923;42.506;24.192;2023-05-12T10:45:27;95962.72;;;18.12;33.04
61961;BME280;47923;42.506;24.192;2023-05-12T10:48:03;95893.72;;;17.19;33.48
61961;BME280;47923;42.506;24.192;2023-05-12T10:50:30;95819.75;;;18.15;32.48
61961;BME280;47923;42.506;24.192;2023-05-12T10:52:56;95946.53;;;18.57;33.70
61961;BME280;47923;42.506;24.192;2023-05-12T10:55:33;95843.28;;;17.84;33.65
61961;BME280;47923;42.506;24.192;2023-05-12T10:58:09;95846.25;;;18.25;30.93
61961;BME280;47923;42.506;24.192;2023-05-12T11:00:48;95822.22;;;17.81;32.09
61961;BME280;47923;42.506;24.192;2023-05-12T11:03:16;95913.31;;;18.58;33.31
61961;BME280;47923;42.506;24.192;2023-05-12T11:05:42;95935.00;;;18.97;32.33
61961;BME280;47923;42.506;24.192;2023-05-12T11:08:08;95951.44;;;17.88;33.36
61961;BME280;47923;42.506;24.192;2023-05-12T11:10:34;95790.25;;;16.07;35.39
61961;BME280;47923;42.506;24.192;2023-05-12T11:13:01;95951.00;;;16.94;34.00
61961;BME280;47923;42.506;24.192;2023-05-12T11:15:27;95829.66;;;17.77;32.62
61961;BME280;47923;42.506;24.192;2023-05-12T11:17:52;95894.56;;;19.19;32.65
61961;BME280;47923;42.506;24.192;2023-05-12T11:20:22;95741.50;;;17.55;32.26
61961;BME280;47923;42.506;24.192;2023-05-12T11:22:48;95931.34;;;18.45;33.71
61961;BME280;47923;42.506;24.192;2023-05-12T11:25:14;95799.97;;;17.82;33.88
61961;BME280;47923;42.506;24.192;2023-05-12T11:27:45;95939.47;;;18.70;33.34
61961;BME280;47923;42.506;24.192;2023-05-12T11:30:11;95784.00;;;17.74;32.69
61961;BME280;47923;42.506;24.192;2023-05-12T11:32:37;95947.88;;;18.06;32.17
61961;BME280;47923;42.506;24.192;2023-05-12T11:35:11;95945.13;;;18.16;32.46
61961;BME280;47923;42.506;24.192;2023-05-12T11:37:41;95931.63;;;18.75;31.95
61961;BME280;47923;42.506;24.192;2023-05-12T11:40:13;95825.38;;;17.79;32.14
61961;BME280;47923;42.506;24.192;2023-05-12T11:42:38;95937.75;;;17.95;33.65
61961;BME280;47923;42.506;24.192;2023-05-12T11:45:06;95935.88;;;17.71;33.80
61961;BME280;47923;42.506;24.192;2023-05-12T11:47:31;95923.72;;;17.93;33.33
61961;BME280;47923;42.506;24.192;2023-05-12T11:49:57;95943.00;;;18.63;33.73
61961;BME280;47923;42.506;24.192;2023-05-12T11:52:23;95921.69;;;18.19;35.33
61961;BME280;47923;42.506;24.192;2023-05-12T11:54:56;95930.28;;;18.17;35.25
61961;BME280;47923;42.506;24.192;2023-05-12T11:57:33;95915.72;;;18.42;33.24
61961;BME280;47923;42.506;24.192;2023-05-12T12:00:04;95870.59;;;18.02;34.43
61961;BME280;47923;42.506;24.192;2023-05-12T12:02:32;95733.06;;;16.96;34.24
61961;BME280;47923;42.506;24.192;2023-05-12T12:04:58;95919.00;;;17.98;33.85
61961;BME280;47923;42.506;24.192;2023-05-12T12:07:33;95895.22;;;17.84;34.49
61961;BME280;47923;42.506;24.192;2023-05-12T12:10:16;95918.28;;;16.97;36.73
61961;BME280;47923;42.506;24.192;2023-05-12T12:12:43;95910.06;;;16.83;36.33
61961;BME280;47923;42.506;24.192;2023-05-12T12:15:10;95748.88;;;15.69;36.81
61961;BME280;47923;42.506;24.192;2023-05-12T12:17:36;95858.13;;;16.51;36.63
61961;BME280;47923;42.506;24.192;2023-05-12T12:20:02;95917.47;;;17.04;36.10
61961;BME280;47923;42.506;24.192;2023-05-12T12:22:27;95919.78;;;16.73;36.73
61961;BME280;47923;42.506;24.192;2023-05-12T12:24:58;95785.47;;;15.71;36.93
61961;BME280;47923;42.506;24.192;2023-05-12T12:27:24;95931.00;;;16.54;36.57
61961;BME280;47923;42.506;24.192;2023-05-12T12:29:49;95922.13;;;16.71;36.16
61961;BME280;47923;42.506;24.192;2023-05-12T12:32:15;95892.06;;;16.64;37.72
61961;BME280;47923;42.506;24.192;2023-05-12T12:34:40;95830.44;;;16.35;36.21
61961;BME280;47923;42.506;24.192;2023-05-12T12:37:06;95919.78;;;16.80;36.32
61961;BME280;47923;42.506;24.192;2023-05-12T12:39:32;95910.44;;;16.96;36.92
61961;BME280;47923;42.506;24.192;2023-05-12T12:41:57;95928.88;;;16.12;37.86
61961;BME280;47923;42.506;24.192;2023-05-12T12:44:23;95919.31;;;16.57;38.25
61961;BME280;47923;42.506;24.192;2023-05-12T12:46:48;95812.09;;;16.21;37.94
61961;BME280;47923;42.506;24.192;2023-05-12T12:49:14;95919.78;;;16.80;38.11
61961;BME280;47923;42.506;24.192;2023-05-12T12:51:39;95908.91;;;16.95;38.45
61961;BME280;47923;42.506;24.192;2023-05-12T12:54:05;95917.88;;;17.09;38.09
61961;BME280;47923;42.506;24.192;2023-05-12T12:56:31;95696.22;;;15.36;37.50
61961;BME280;47923;42.506;24.192;2023-05-12T12:58:56;95855.75;;;16.32;37.51